sensor_id;sensor_type;location;lat;lon;timestamp;temperature;humidity
15127;DHT22;7664;52.008;4.748;2022-07-23T00:00:53;17.40;99.90
15127;DHT22;7664;52.008;4.748;2022-07-23T00:03:21;17.40;99.90
15127;DHT22;7664;52.008;4.748;2022-07-23T00:05:50;17.40;99.90
15127;DHT22;7664;52.008;4.748;2022-07-23T00:08:18;17.40;99.90
15127;DHT22;7664;52.008;4.748;2022-07-23T00:10:46;17.40;99.90
15127;DHT22;7664;52.008;4.748;2022-07-23T00:13:14;17.30;99.90
15127;DHT22;7664;52.008;4.748;2022-07-23T00:15:42;17.30;99.90
15127;DHT22;7664;52.008;4.748;2022-07-23T00:18:10;17.30;99.90
15127;DHT22;7664;52.008;4.748;2022-07-23T00:20:38;17.30;99.90
15127;DHT22;7664;52.008;4.748;2022-07-23T00:23:08;17.20;99.90
15127;DHT22;7664;52.008;4.748;2022-07-23T00:25:35;17.10;99.90
15127;DHT22;7664;52.008;4.748;2022-07-23T00:28:04;17.00;99.90
15127;DHT22;7664;52.008;4.748;2022-07-23T00:30:32;17.00;99.90
15127;DHT22;7664;52.008;4.748;2022-07-23T00:33:03;17.00;99.90
15127;DHT22;7664;52.008;4.748;2022-07-23T00:35:33;16.90;99.90
15127;DHT22;7664;52.008;4.748;2022-07-23T00:38:04;17.00;99.90
15127;DHT22;7664;52.008;4.748;2022-07-23T00:40:34;16.90;99.90
15127;DHT22;7664;52.008;4.748;2022-07-23T00:43:02;16.90;99.90
15127;DHT22;7664;52.008;4.748;2022-07-23T00:45:30;16.80;99.90
15127;DHT22;7664;52.008;4.748;2022-07-23T00:47:59;16.80;99.90
15127;DHT22;7664;52.008;4.748;2022-07-23T00:50:28;16.80;99.90
15127;DHT22;7664;52.008;4.748;2022-07-23T00:52:56;16.80;99.90
15127;DHT22;7664;52.008;4.748;2022-07-23T00:55:24;16.70;99.90
15127;DHT22;7664;52.008;4.748;2022-07-23T00:57:55;16.80;99.90
15127;DHT22;7664;52.008;4.748;2022-07-23T01:00:23;16.80;99.90
15127;DHT22;7664;52.008;4.748;2022-07-23T01:02:51;16.80;99.90
15127;DHT22;7664;52.008;4.748;2022-07-23T01:05:19;16.70;99.90
15127;DHT22;7664;52.008;4.748;2022-07-23T01:07:49;16.80;99.90
15127;DHT22;7664;52.008;4.748;2022-07-23T01:10:22;16.70;99.90
15127;DHT22;7664;52.008;4.748;2022-07-23T01:13:02;16.70;99.90
15127;DHT22;7664;52.008;4.748;2022-07-23T01:15:31;16.70;99.90
15127;DHT22;7664;52.008;4.748;2022-07-23T01:18:00;16.70;99.90
15127;DHT22;7664;52.008;4.748;2022-07-23T01:20:28;16.70;99.90
15127;DHT22;7664;52.008;4.748;2022-07-23T01:22:57;16.60;99.90
15127;DHT22;7664;52.008;4.748;2022-07-23T01:25:26;16.50;99.90
15127;DHT22;7664;52.008;4.748;2022-07-23T01:27:54;16.50;99.90
15127;DHT22;7664;52.008;4.748;2022-07-23T01:30:22;16.50;99.90
15127;DHT22;7664;52.008;4.748;2022-07-23T01:32:50;16.50;99.90
15127;DHT22;7664;52.008;4.748;2022-07-23T01:35:18;16.50;99.90
15127;DHT22;7664;52.008;4.748;2022-07-23T01:37:45;16.50;99.90
15127;DHT22;7664;52.008;4.748;2022-07-23T01:40:15;16.50;99.90
15127;DHT22;7664;52.008;4.748;2022-07-23T01:42:44;16.50;99.90
15127;DHT22;7664;52.008;4.748;2022-07-23T01:45:13;16.50;99.90
15127;DHT22;7664;52.008;4.748;2022-07-23T01:47:41;16.50;99.90
15127;DHT22;7664;52.008;4.748;2022-07-23T01:50:09;16.50;99.90
15127;DHT22;7664;52.008;4.748;2022-07-23T01:52:37;16.40;99.90
15127;DHT22;7664;52.008;4.748;2022-07-23T01:55:06;16.40;99.90
15127;DHT22;7664;52.008;4.748;2022-07-23T01:57:36;16.40;99.90
15127;DHT22;7664;52.008;4.748;2022-07-23T02:00:04;16.40;99.90
15127;DHT22;7664;52.008;4.748;2022-07-23T02:02:32;16.40;99.90
15127;DHT22;7664;52.008;4.748;2022-07-23T02:05:00;16.40;99.90
15127;DHT22;7664;52.008;4.748;2022-07-23T02:07:28;16.40;99.90
15127;DHT22;7664;52.008;4.748;2022-07-23T02:09:59;16.40;99.90
15127;DHT22;7664;52.008;4.748;2022-07-23T02:12:27;16.30;99.90
15127;DHT22;7664;52.008;4.748;2022-07-23T02:14:56;16.30;99.90
15127;DHT22;7664;52.008;4.748;2022-07-23T02:17:24;16.30;99.90
15127;DHT22;7664;52.008;4.748;2022-07-23T02:19:52;16.30;99.90
15127;DHT22;7664;52.008;4.748;2022-07-23T02:22:20;16.30;99.90
15127;DHT22;7664;52.008;4.748;2022-07-23T02:24:48;16.30;99.90
15127;DHT22;7664;52.008;4.748;2022-07-23T02:27:16;16.30;99.90
15127;DHT22;7664;52.008;4.748;2022-07-23T02:29:44;16.30;99.90
15127;DHT22;7664;52.008;4.748;2022-07-23T02:32:13;16.30;99.90
15127;DHT22;7664;52.008;4.748;2022-07-23T02:34:41;16.30;99.90
15127;DHT22;7664;52.008;4.748;2022-07-23T02:37:09;16.30;99.90
15127;DHT22;7664;52.008;4.748;2022-07-23T02:39:37;16.30;99.90
15127;DHT22;7664;52.008;4.748;2022-07-23T02:42:05;16.20;99.90
15127;DHT22;7664;52.008;4.748;2022-07-23T02:44:34;16.20;99.90
15127;DHT22;7664;52.008;4.748;2022-07-23T02:47:02;16.20;99.90
15127;DHT22;7664;52.008;4.748;2022-07-23T02:49:31;16.20;99.90
15127;DHT22;7664;52.008;4.748;2022-07-23T02:51:59;16.20;99.90
15127;DHT22;7664;52.008;4.748;2022-07-23T02:54:27;16.20;99.90
15127;DHT22;7664;52.008;4.748;2022-07-23T02:56:55;16.20;99.90
15127;DHT22;7664;52.008;4.748;2022-07-23T02:59:23;16.20;99.90
15127;DHT22;7664;52.008;4.748;2022-07-23T03:01:51;16.20;99.90
15127;DHT22;7664;52.008;4.748;2022-07-23T03:04:18;16.10;99.90
15127;DHT22;7664;52.008;4.748;2022-07-23T03:06:48;16.10;99.90
15127;DHT22;7664;52.008;4.748;2022-07-23T03:09:16;16.10;99.90
15127;DHT22;7664;52.008;4.748;2022-07-23T03:11:44;16.10;99.90
15127;DHT22;7664;52.008;4.748;2022-07-23T03:14:12;16.10;99.90
15127;DHT22;7664;52.008;4.748;2022-07-23T03:16:40;16.10;99.90
15127;DHT22;7664;52.008;4.748;2022-07-23T03:19:08;16.10;99.90
15127;DHT22;7664;52.008;4.748;2022-07-23T03:21:36;16.10;99.90
15127;DHT22;7664;52.008;4.748;2022-07-23T03:24:08;16.10;99.90
15127;DHT22;7664;52.008;4.748;2022-07-23T03:26:37;16.20;99.90
15127;DHT22;7664;52.008;4.748;2022-07-23T03:29:05;16.10;99.90
15127;DHT22;7664;52.008;4.748;2022-07-23T03:31:33;16.10;99.90
15127;DHT22;7664;52.008;4.748;2022-07-23T03:34:01;16.10;99.90
15127;DHT22;7664;52.008;4.748;2022-07-23T03:36:29;16.10;99.90
15127;DHT22;7664;52.008;4.748;2022-07-23T03:38:57;16.10;99.90
15127;DHT22;7664;52.008;4.748;2022-07-23T03:41:29;16.10;99.90
15127;DHT22;7664;52.008;4.748;2022-07-23T03:43:56;16.00;99.90
15127;DHT22;7664;52.008;4.748;2022-07-23T03:46:24;16.00;99.90
15127;DHT22;7664;52.008;4.748;2022-07-23T03:48:52;16.00;99.90
15127;DHT22;7664;52.008;4.748;2022-07-23T03:51:24;15.90;99.90
15127;DHT22;7664;52.008;4.748;2022-07-23T03:53:52;15.90;99.90
15127;DHT22;7664;52.008;4.748;2022-07-23T03:56:21;15.70;99.90
15127;DHT22;7664;52.008;4.748;2022-07-23T03:58:51;15.70;99.90
15127;DHT22;7664;52.008;4.748;2022-07-23T04:01:19;15.70;99.90
15127;DHT22;7664;52.008;4.748;2022-07-23T04:03:47;15.60;99.90
15127;DHT22;7664;52.008;4.748;2022-07-23T04:06:15;15.60;99.90
15127;DHT22;7664;52.008;4.748;2022-07-23T04:08:43;15.60;99.90
15127;DHT22;7664;52.008;4.748;2022-07-23T04:11:11;15.60;99.90
15127;DHT22;7664;52.008;4.748;2022-07-23T04:13:39;15.60;99.90
15127;DHT22;7664;52.008;4.748;2022-07-23T04:16:09;15.60;99.90
15127;DHT22;7664;52.008;4.748;2022-07-23T04:18:37;15.60;99.90
15127;DHT22;7664;52.008;4.748;2022-07-23T04:21:05;15.60;99.90
15127;DHT22;7664;52.008;4.748;2022-07-23T04:23:33;15.60;99.90
15127;DHT22;7664;52.008;4.748;2022-07-23T04:26:01;15.60;99.90
15127;DHT22;7664;52.008;4.748;2022-07-23T04:28:29;15.70;99.90
15127;DHT22;7664;52.008;4.748;2022-07-23T04:30:57;15.70;99.90
15127;DHT22;7664;52.008;4.748;2022-07-23T04:33:27;15.70;99.90
15127;DHT22;7664;52.008;4.748;2022-07-23T04:35:55;15.70;99.90
15127;DHT22;7664;52.008;4.748;2022-07-23T04:38:23;15.80;99.90
15127;DHT22;7664;52.008;4.748;2022-07-23T04:40:51;15.80;99.90
15127;DHT22;7664;52.008;4.748;2022-07-23T04:43:19;15.90;99.90
15127;DHT22;7664;52.008;4.748;2022-07-23T04:45:47;15.90;99.90
15127;DHT22;7664;52.008;4.748;2022-07-23T04:48:15;15.90;99.90
15127;DHT22;7664;52.008;4.748;2022-07-23T04:50:44;16.00;99.90
15127;DHT22;7664;52.008;4.748;2022-07-23T04:53:12;16.10;99.90
15127;DHT22;7664;52.008;4.748;2022-07-23T04:55:40;16.10;99.90
15127;DHT22;7664;52.008;4.748;2022-07-23T04:58:08;16.20;99.90
15127;DHT22;7664;52.008;4.748;2022-07-23T05:00:36;16.30;99.90
15127;DHT22;7664;52.008;4.748;2022-07-23T05:03:04;16.30;99.90
15127;DHT22;7664;52.008;4.748;2022-07-23T05:05:32;16.40;99.90
15127;DHT22;7664;52.008;4.748;2022-07-23T05:08:01;16.50;99.90
15127;DHT22;7664;52.008;4.748;2022-07-23T05:10:29;16.50;99.90
15127;DHT22;7664;52.008;4.748;2022-07-23T05:12:57;16.60;99.90
15127;DHT22;7664;52.008;4.748;2022-07-23T05:15:25;16.80;99.90
15127;DHT22;7664;52.008;4.748;2022-07-23T05:17:53;16.90;99.90
15127;DHT22;7664;52.008;4.748;2022-07-23T05:20:20;16.90;99.90
15127;DHT22;7664;52.008;4.748;2022-07-23T05:22:48;17.00;99.90
15127;DHT22;7664;52.008;4.748;2022-07-23T05:25:18;17.00;99.90
15127;DHT22;7664;52.008;4.748;2022-07-23T05:27:46;17.10;99.90
15127;DHT22;7664;52.008;4.748;2022-07-23T05:30:13;17.10;99.90
15127;DHT22;7664;52.008;4.748;2022-07-23T05:32:41;17.20;99.90
15127;DHT22;7664;52.008;4.748;2022-07-23T05:35:09;17.30;99.90
15127;DHT22;7664;52.008;4.748;2022-07-23T05:37:38;17.40;99.90
15127;DHT22;7664;52.008;4.748;2022-07-23T05:40:07;17.60;99.90
15127;DHT22;7664;52.008;4.748;2022-07-23T05:42:40;17.90;99.90
15127;DHT22;7664;52.008;4.748;2022-07-23T05:45:09;18.30;99.90
15127;DHT22;7664;52.008;4.748;2022-07-23T05:47:42;18.90;99.90
15127;DHT22;7664;52.008;4.748;2022-07-23T05:50:11;19.50;99.90
15127;DHT22;7664;52.008;4.748;2022-07-23T05:52:40;20.10;99.90
15127;DHT22;7664;52.008;4.748;2022-07-23T05:55:09;20.90;99.90
15127;DHT22;7664;52.008;4.748;2022-07-23T05:57:39;21.60;99.90
15127;DHT22;7664;52.008;4.748;2022-07-23T06:00:09;22.30;99.90
15127;DHT22;7664;52.008;4.748;2022-07-23T06:02:37;22.80;99.90
15127;DHT22;7664;52.008;4.748;2022-07-23T06:05:07;23.50;99.90
15127;DHT22;7664;52.008;4.748;2022-07-23T06:07:35;24.20;99.90
15127;DHT22;7664;52.008;4.748;2022-07-23T06:10:04;24.90;99.90
15127;DHT22;7664;52.008;4.748;2022-07-23T06:12:33;25.50;99.90
15127;DHT22;7664;52.008;4.748;2022-07-23T06:15:03;25.90;99.90
15127;DHT22;7664;52.008;4.748;2022-07-23T06:17:37;26.20;99.90
15127;DHT22;7664;52.008;4.748;2022-07-23T06:20:07;26.50;99.90
15127;DHT22;7664;52.008;4.748;2022-07-23T06:22:35;26.60;97.90
15127;DHT22;7664;52.008;4.748;2022-07-23T06:25:04;26.80;99.90
15127;DHT22;7664;52.008;4.748;2022-07-23T06:27:45;27.10;99.90
15127;DHT22;7664;52.008;4.748;2022-07-23T06:30:14;27.00;97.00
15127;DHT22;7664;52.008;4.748;2022-07-23T06:32:44;27.20;93.80
15127;DHT22;7664;52.008;4.748;2022-07-23T06:35:12;27.20;96.30
15127;DHT22;7664;52.008;4.748;2022-07-23T06:37:40;26.90;94.40
15127;DHT22;7664;52.008;4.748;2022-07-23T06:40:09;27.10;95.10
15127;DHT22;7664;52.008;4.748;2022-07-23T06:42:37;27.30;93.90
15127;DHT22;7664;52.008;4.748;2022-07-23T06:45:06;27.40;92.50
15127;DHT22;7664;52.008;4.748;2022-07-23T06:47:36;27.70;92.80
15127;DHT22;7664;52.008;4.748;2022-07-23T06:50:05;27.70;87.40
15127;DHT22;7664;52.008;4.748;2022-07-23T06:52:33;27.70;90.30
15127;DHT22;7664;52.008;4.748;2022-07-23T06:55:08;28.00;90.90
15127;DHT22;7664;52.008;4.748;2022-07-23T06:57:37;28.20;88.30
15127;DHT22;7664;52.008;4.748;2022-07-23T07:00:10;27.70;83.10
15127;DHT22;7664;52.008;4.748;2022-07-23T07:02:39;27.10;79.10
15127;DHT22;7664;52.008;4.748;2022-07-23T07:05:08;27.00;84.10
15127;DHT22;7664;52.008;4.748;2022-07-23T07:07:36;27.60;88.30
15127;DHT22;7664;52.008;4.748;2022-07-23T07:10:05;28.30;87.00
15127;DHT22;7664;52.008;4.748;2022-07-23T07:12:41;28.60;83.10
15127;DHT22;7664;52.008;4.748;2022-07-23T07:15:09;29.00;79.60
15127;DHT22;7664;52.008;4.748;2022-07-23T07:17:39;29.10;75.10
15127;DHT22;7664;52.008;4.748;2022-07-23T07:20:11;28.70;76.50
15127;DHT22;7664;52.008;4.748;2022-07-23T07:22:39;28.70;74.90
15127;DHT22;7664;52.008;4.748;2022-07-23T07:25:07;29.10;76.40
15127;DHT22;7664;52.008;4.748;2022-07-23T07:27:35;29.20;72.20
15127;DHT22;7664;52.008;4.748;2022-07-23T07:30:05;28.30;67.30
15127;DHT22;7664;52.008;4.748;2022-07-23T07:32:33;27.60;68.40
15127;DHT22;7664;52.008;4.748;2022-07-23T07:35:24;27.70;74.60
15127;DHT22;7664;52.008;4.748;2022-07-23T07:37:53;28.20;73.70
15127;DHT22;7664;52.008;4.748;2022-07-23T07:40:21;28.50;70.10
15127;DHT22;7664;52.008;4.748;2022-07-23T07:42:52;28.30;68.60
15127;DHT22;7664;52.008;4.748;2022-07-23T07:45:20;28.10;65.40
15127;DHT22;7664;52.008;4.748;2022-07-23T07:47:49;28.40;68.90
15127;DHT22;7664;52.008;4.748;2022-07-23T07:50:18;28.00;67.10
15127;DHT22;7664;52.008;4.748;2022-07-23T07:52:49;28.30;70.60
15127;DHT22;7664;52.008;4.748;2022-07-23T07:55:17;28.70;69.30
15127;DHT22;7664;52.008;4.748;2022-07-23T07:57:45;28.60;68.00
15127;DHT22;7664;52.008;4.748;2022-07-23T08:00:15;28.50;65.70
15127;DHT22;7664;52.008;4.748;2022-07-23T08:02:44;27.90;61.40
15127;DHT22;7664;52.008;4.748;2022-07-23T08:05:13;27.40;64.00
15127;DHT22;7664;52.008;4.748;2022-07-23T08:07:41;27.40;67.50
15127;DHT22;7664;52.008;4.748;2022-07-23T08:10:10;27.50;67.00
15127;DHT22;7664;52.008;4.748;2022-07-23T08:12:40;28.10;68.90
15127;DHT22;7664;52.008;4.748;2022-07-23T08:15:09;28.70;66.70
15127;DHT22;7664;52.008;4.748;2022-07-23T08:17:40;28.50;62.90
15127;DHT22;7664;52.008;4.748;2022-07-23T08:20:09;28.00;62.70
15127;DHT22;7664;52.008;4.748;2022-07-23T08:22:50;27.80;62.80
15127;DHT22;7664;52.008;4.748;2022-07-23T08:25:23;27.50;61.10
15127;DHT22;7664;52.008;4.748;2022-07-23T08:27:52;27.90;65.90
15127;DHT22;7664;52.008;4.748;2022-07-23T08:30:20;28.60;67.50
15127;DHT22;7664;52.008;4.748;2022-07-23T08:32:50;29.30;65.00
15127;DHT22;7664;52.008;4.748;2022-07-23T08:35:22;29.60;61.60
15127;DHT22;7664;52.008;4.748;2022-07-23T08:37:50;29.90;60.60
15127;DHT22;7664;52.008;4.748;2022-07-23T08:40:18;30.20;61.90
15127;DHT22;7664;52.008;4.748;2022-07-23T08:42:50;30.70;61.90
15127;DHT22;7664;52.008;4.748;2022-07-23T08:45:20;30.90;59.00
15127;DHT22;7664;52.008;4.748;2022-07-23T08:47:49;31.40;60.70
15127;DHT22;7664;52.008;4.748;2022-07-23T08:50:19;31.60;58.20
15127;DHT22;7664;52.008;4.748;2022-07-23T08:52:48;31.90;57.20
15127;DHT22;7664;52.008;4.748;2022-07-23T08:55:17;31.90;56.30
15127;DHT22;7664;52.008;4.748;2022-07-23T08:57:47;32.00;55.20
15127;DHT22;7664;52.008;4.748;2022-07-23T09:00:17;31.80;53.90
15127;DHT22;7664;52.008;4.748;2022-07-23T09:02:46;31.90;54.30
15127;DHT22;7664;52.008;4.748;2022-07-23T09:05:15;31.90;54.40
15127;DHT22;7664;52.008;4.748;2022-07-23T09:08:07;31.70;52.60
15127;DHT22;7664;52.008;4.748;2022-07-23T09:10:49;31.30;47.80
15127;DHT22;7664;52.008;4.748;2022-07-23T09:13:31;31.10;47.30
15127;DHT22;7664;52.008;4.748;2022-07-23T09:16:02;30.80;47.80
15127;DHT22;7664;52.008;4.748;2022-07-23T09:18:35;29.90;45.70
15127;DHT22;7664;52.008;4.748;2022-07-23T09:21:07;29.10;47.50
15127;DHT22;7664;52.008;4.748;2022-07-23T09:23:37;28.60;46.60
15127;DHT22;7664;52.008;4.748;2022-07-23T09:26:18;27.80;46.10
15127;DHT22;7664;52.008;4.748;2022-07-23T09:28:54;27.80;49.40
15127;DHT22;7664;52.008;4.748;2022-07-23T09:31:22;27.80;48.10
15127;DHT22;7664;52.008;4.748;2022-07-23T09:33:51;28.00;49.90
15127;DHT22;7664;52.008;4.748;2022-07-23T09:36:29;28.00;48.20
15127;DHT22;7664;52.008;4.748;2022-07-23T09:38:57;27.60;47.90
15127;DHT22;7664;52.008;4.748;2022-07-23T09:41:25;27.70;49.60
15127;DHT22;7664;52.008;4.748;2022-07-23T09:44:10;27.50;48.50
15127;DHT22;7664;52.008;4.748;2022-07-23T09:46:39;27.60;51.50
15127;DHT22;7664;52.008;4.748;2022-07-23T09:49:13;28.00;50.70
15127;DHT22;7664;52.008;4.748;2022-07-23T09:51:44;27.60;48.60
15127;DHT22;7664;52.008;4.748;2022-07-23T09:54:28;27.10;49.10
15127;DHT22;7664;52.008;4.748;2022-07-23T09:56:59;26.80;49.00
15127;DHT22;7664;52.008;4.748;2022-07-23T09:59:30;26.90;51.70
15127;DHT22;7664;52.008;4.748;2022-07-23T10:02:00;27.30;52.00
15127;DHT22;7664;52.008;4.748;2022-07-23T10:04:30;27.50;51.90
15127;DHT22;7664;52.008;4.748;2022-07-23T10:06:59;27.60;50.80
15127;DHT22;7664;52.008;4.748;2022-07-23T10:09:28;27.50;50.60
15127;DHT22;7664;52.008;4.748;2022-07-23T10:11:59;27.70;51.20
15127;DHT22;7664;52.008;4.748;2022-07-23T10:14:33;28.00;50.90
15127;DHT22;7664;52.008;4.748;2022-07-23T10:17:01;27.90;51.10
15127;DHT22;7664;52.008;4.748;2022-07-23T10:19:31;27.70;49.40
15127;DHT22;7664;52.008;4.748;2022-07-23T10:22:01;27.40;50.80
15127;DHT22;7664;52.008;4.748;2022-07-23T10:24:42;27.40;52.10
15127;DHT22;7664;52.008;4.748;2022-07-23T10:30:14;27.80;50.00
15127;DHT22;7664;52.008;4.748;2022-07-23T10:32:48;27.80;50.30
15127;DHT22;7664;52.008;4.748;2022-07-23T10:35:23;27.40;50.70
15127;DHT22;7664;52.008;4.748;2022-07-23T10:37:56;27.00;51.00
15127;DHT22;7664;52.008;4.748;2022-07-23T10:40:31;26.90;52.20
15127;DHT22;7664;52.008;4.748;2022-07-23T10:43:00;27.20;53.60
15127;DHT22;7664;52.008;4.748;2022-07-23T10:45:32;27.10;52.70
15127;DHT22;7664;52.008;4.748;2022-07-23T10:48:16;27.30;53.20
15127;DHT22;7664;52.008;4.748;2022-07-23T10:51:09;27.30;51.10
15127;DHT22;7664;52.008;4.748;2022-07-23T10:53:56;26.90;51.60
15127;DHT22;7664;52.008;4.748;2022-07-23T10:59:30;27.10;53.90
15127;DHT22;7664;52.008;4.748;2022-07-23T11:02:23;26.80;52.80
15127;DHT22;7664;52.008;4.748;2022-07-23T11:04:53;27.00;53.70
15127;DHT22;7664;52.008;4.748;2022-07-23T11:07:21;27.20;54.50
15127;DHT22;7664;52.008;4.748;2022-07-23T11:09:49;27.50;54.60
15127;DHT22;7664;52.008;4.748;2022-07-23T11:12:34;27.60;53.80
15127;DHT22;7664;52.008;4.748;2022-07-23T11:15:07;27.80;53.00
15127;DHT22;7664;52.008;4.748;2022-07-23T11:17:38;27.90;53.90
15127;DHT22;7664;52.008;4.748;2022-07-23T11:20:14;28.00;53.30
15127;DHT22;7664;52.008;4.748;2022-07-23T11:22:49;27.80;52.70
15127;DHT22;7664;52.008;4.748;2022-07-23T11:25:35;27.60;53.00
15127;DHT22;7664;52.008;4.748;2022-07-23T11:28:12;27.70;52.90
15127;DHT22;7664;52.008;4.748;2022-07-23T11:30:43;27.80;54.20
15127;DHT22;7664;52.008;4.748;2022-07-23T11:33:21;27.80;55.10
15127;DHT22;7664;52.008;4.748;2022-07-23T11:35:59;27.80;54.20
15127;DHT22;7664;52.008;4.748;2022-07-23T11:38:31;27.80;54.50
15127;DHT22;7664;52.008;4.748;2022-07-23T11:41:00;27.60;54.90
15127;DHT22;7664;52.008;4.748;2022-07-23T11:43:28;27.50;55.20
15127;DHT22;7664;52.008;4.748;2022-07-23T11:45:58;27.50;54.40
15127;DHT22;7664;52.008;4.748;2022-07-23T11:48:30;27.50;56.00
15127;DHT22;7664;52.008;4.748;2022-07-23T11:51:06;27.50;54.80
15127;DHT22;7664;52.008;4.748;2022-07-23T11:53:34;27.50;56.00
15127;DHT22;7664;52.008;4.748;2022-07-23T11:56:04;27.50;56.00
15127;DHT22;7664;52.008;4.748;2022-07-23T11:58:32;27.40;56.00
15127;DHT22;7664;52.008;4.748;2022-07-23T12:01:01;27.40;55.90
15127;DHT22;7664;52.008;4.748;2022-07-23T12:03:31;27.40;56.00
15127;DHT22;7664;52.008;4.748;2022-07-23T12:06:00;27.50;55.90
15127;DHT22;7664;52.008;4.748;2022-07-23T12:08:28;27.60;57.00
15127;DHT22;7664;52.008;4.748;2022-07-23T12:10:56;27.60;56.40
15127;DHT22;7664;52.008;4.748;2022-07-23T12:13:24;27.60;55.50
15127;DHT22;7664;52.008;4.748;2022-07-23T12:15:53;27.60;55.90
15127;DHT22;7664;52.008;4.748;2022-07-23T12:18:23;27.60;54.40
15127;DHT22;7664;52.008;4.748;2022-07-23T12:20:54;27.60;54.90
15127;DHT22;7664;52.008;4.748;2022-07-23T12:23:26;27.50;54.20
15127;DHT22;7664;52.008;4.748;2022-07-23T12:25:54;27.50;54.70
15127;DHT22;7664;52.008;4.748;2022-07-23T12:28:28;27.60;55.60
15127;DHT22;7664;52.008;4.748;2022-07-23T12:30:57;27.70;53.80
15127;DHT22;7664;52.008;4.748;2022-07-23T12:33:26;27.80;55.90
15127;DHT22;7664;52.008;4.748;2022-07-23T12:35:58;27.80;55.40
15127;DHT22;7664;52.008;4.748;2022-07-23T12:38:28;27.70;53.20
15127;DHT22;7664;52.008;4.748;2022-07-23T12:41:03;27.70;53.50
15127;DHT22;7664;52.008;4.748;2022-07-23T12:43:33;27.60;54.20
15127;DHT22;7664;52.008;4.748;2022-07-23T12:46:03;27.70;55.30
15127;DHT22;7664;52.008;4.748;2022-07-23T12:48:33;27.70;53.70
15127;DHT22;7664;52.008;4.748;2022-07-23T12:51:07;27.80;54.00
15127;DHT22;7664;52.008;4.748;2022-07-23T12:53:45;27.80;53.20
15127;DHT22;7664;52.008;4.748;2022-07-23T12:56:17;27.80;52.80
15127;DHT22;7664;52.008;4.748;2022-07-23T12:58:48;27.70;53.00
15127;DHT22;7664;52.008;4.748;2022-07-23T13:01:31;27.80;53.00
15127;DHT22;7664;52.008;4.748;2022-07-23T13:04:01;27.80;52.80
15127;DHT22;7664;52.008;4.748;2022-07-23T13:06:42;27.90;52.70
15127;DHT22;7664;52.008;4.748;2022-07-23T13:09:13;27.90;53.10
15127;DHT22;7664;52.008;4.748;2022-07-23T13:11:41;27.90;53.00
15127;DHT22;7664;52.008;4.748;2022-07-23T13:14:10;27.80;52.10
15127;DHT22;7664;52.008;4.748;2022-07-23T13:16:39;27.80;52.30
15127;DHT22;7664;52.008;4.748;2022-07-23T13:19:08;27.90;51.90
15127;DHT22;7664;52.008;4.748;2022-07-23T13:21:39;27.90;53.10
15127;DHT22;7664;52.008;4.748;2022-07-23T13:24:09;28.10;53.00
15127;DHT22;7664;52.008;4.748;2022-07-23T13:26:39;28.10;51.20
15127;DHT22;7664;52.008;4.748;2022-07-23T13:29:07;27.90;51.40
15127;DHT22;7664;52.008;4.748;2022-07-23T13:31:36;27.90;52.70
15127;DHT22;7664;52.008;4.748;2022-07-23T13:34:05;27.90;52.30
15127;DHT22;7664;52.008;4.748;2022-07-23T13:36:34;27.80;52.70
15127;DHT22;7664;52.008;4.748;2022-07-23T13:39:04;27.90;53.40
15127;DHT22;7664;52.008;4.748;2022-07-23T13:41:36;27.80;52.50
15127;DHT22;7664;52.008;4.748;2022-07-23T13:44:04;27.90;53.20
15127;DHT22;7664;52.008;4.748;2022-07-23T13:46:33;28.00;53.80
15127;DHT22;7664;52.008;4.748;2022-07-23T13:49:01;28.00;53.10
15127;DHT22;7664;52.008;4.748;2022-07-23T13:51:32;28.10;53.30
15127;DHT22;7664;52.008;4.748;2022-07-23T13:54:00;28.10;52.90
15127;DHT22;7664;52.008;4.748;2022-07-23T13:56:30;28.30;53.50
15127;DHT22;7664;52.008;4.748;2022-07-23T13:58:59;28.40;53.10
15127;DHT22;7664;52.008;4.748;2022-07-23T14:01:27;28.50;53.70
15127;DHT22;7664;52.008;4.748;2022-07-23T14:04:16;28.50;52.30
15127;DHT22;7664;52.008;4.748;2022-07-23T14:06:44;28.10;51.20
15127;DHT22;7664;52.008;4.748;2022-07-23T14:09:18;28.20;53.20
15127;DHT22;7664;52.008;4.748;2022-07-23T14:11:48;28.20;52.60
15127;DHT22;7664;52.008;4.748;2022-07-23T14:14:18;28.20;53.50
15127;DHT22;7664;52.008;4.748;2022-07-23T14:16:46;28.30;52.70
15127;DHT22;7664;52.008;4.748;2022-07-23T14:19:14;28.30;52.80
15127;DHT22;7664;52.008;4.748;2022-07-23T14:21:42;28.30;53.00
15127;DHT22;7664;52.008;4.748;2022-07-23T14:24:11;28.40;53.30
15127;DHT22;7664;52.008;4.748;2022-07-23T14:26:39;28.30;53.20
15127;DHT22;7664;52.008;4.748;2022-07-23T14:29:08;28.30;53.00
15127;DHT22;7664;52.008;4.748;2022-07-23T14:31:38;28.30;52.20
15127;DHT22;7664;52.008;4.748;2022-07-23T14:34:06;28.30;52.20
15127;DHT22;7664;52.008;4.748;2022-07-23T14:36:34;28.30;52.70
15127;DHT22;7664;52.008;4.748;2022-07-23T14:39:05;28.30;52.30
15127;DHT22;7664;52.008;4.748;2022-07-23T14:41:36;28.20;52.60
15127;DHT22;7664;52.008;4.748;2022-07-23T14:44:05;28.20;52.30
15127;DHT22;7664;52.008;4.748;2022-07-23T14:46:37;28.30;53.20
15127;DHT22;7664;52.008;4.748;2022-07-23T14:49:06;28.30;52.00
15127;DHT22;7664;52.008;4.748;2022-07-23T14:51:35;28.30;52.30
15127;DHT22;7664;52.008;4.748;2022-07-23T14:54:04;28.20;52.70
15127;DHT22;7664;52.008;4.748;2022-07-23T14:56:35;28.20;52.50
15127;DHT22;7664;52.008;4.748;2022-07-23T14:59:04;28.10;52.50
15127;DHT22;7664;52.008;4.748;2022-07-23T15:01:33;28.10;53.20
15127;DHT22;7664;52.008;4.748;2022-07-23T15:04:05;28.20;53.60
15127;DHT22;7664;52.008;4.748;2022-07-23T15:06:53;28.20;52.80
15127;DHT22;7664;52.008;4.748;2022-07-23T15:09:21;28.20;52.80
15127;DHT22;7664;52.008;4.748;2022-07-23T15:11:49;28.30;53.20
15127;DHT22;7664;52.008;4.748;2022-07-23T15:14:17;28.30;52.80
15127;DHT22;7664;52.008;4.748;2022-07-23T15:16:56;28.40;52.60
15127;DHT22;7664;52.008;4.748;2022-07-23T15:19:26;28.40;53.10
15127;DHT22;7664;52.008;4.748;2022-07-23T15:21:56;28.50;52.40
15127;DHT22;7664;52.008;4.748;2022-07-23T15:24:27;28.40;51.80
15127;DHT22;7664;52.008;4.748;2022-07-23T15:26:56;28.30;52.20
15127;DHT22;7664;52.008;4.748;2022-07-23T15:29:24;28.30;52.30
15127;DHT22;7664;52.008;4.748;2022-07-23T15:31:52;28.30;52.30
15127;DHT22;7664;52.008;4.748;2022-07-23T15:34:26;28.20;52.30
15127;DHT22;7664;52.008;4.748;2022-07-23T15:36:55;28.30;51.90
15127;DHT22;7664;52.008;4.748;2022-07-23T15:39:24;28.20;52.00
15127;DHT22;7664;52.008;4.748;2022-07-23T15:41:54;28.20;52.70
15127;DHT22;7664;52.008;4.748;2022-07-23T15:44:24;28.20;52.00
15127;DHT22;7664;52.008;4.748;2022-07-23T15:46:55;28.20;52.50
15127;DHT22;7664;52.008;4.748;2022-07-23T15:49:27;28.30;52.50
15127;DHT22;7664;52.008;4.748;2022-07-23T15:51:57;28.20;52.10
15127;DHT22;7664;52.008;4.748;2022-07-23T15:54:26;28.20;52.80
15127;DHT22;7664;52.008;4.748;2022-07-23T15:56:54;28.10;52.30
15127;DHT22;7664;52.008;4.748;2022-07-23T15:59:22;28.10;52.40
15127;DHT22;7664;52.008;4.748;2022-07-23T16:01:55;28.10;51.90
15127;DHT22;7664;52.008;4.748;2022-07-23T16:04:23;28.00;51.70
15127;DHT22;7664;52.008;4.748;2022-07-23T16:06:52;28.00;52.10
15127;DHT22;7664;52.008;4.748;2022-07-23T16:09:20;28.10;52.00